aviador You're here:

KJMR Decoded Metar

MORA in MN, USA
Report Time2017-09-21 13:56:00
UTC Time2017-09-21 14:15:40
Flight Rules vfr VFR
WindCalm
Visibility9999 m
Phenomena:N/A
Clouds:N/A
CeilingNone
Temp10°C (ISA -3)
Dew Point10°C (100% RH)
QNH1016 hPa
Density Alt725 ft
Elevation1,014 ft
Report Wrong Elevation
Raw Report
KJMR 211356Z AUTO 00000KT 10SM CLR 10/10 A3001 RMK AO2=

Extra information for KJMR:More info

Metar Taf Metar & Taf Last 4 Metars F.Rules Stats Wind Profile Meteogram Temp Stats Airport Information Weather charts Add Link Nearby VenuesMetar ALERT Operation Metar Decoded Social comments

AIRNAV info for KJMR